Weather History for Keokuk, IA

Change the Weather History Date:

Friday, February 15, 2013

  Actual Average Record
Temperature  
Mean Temperature 31 °F -  
Max Temperature 39 °F 38 °F 70 °F (1954)
Min Temperature 23 °F 22 °F -6 °F (1963)
Degree Days  
Heating Degree Days 34    
Moisture  
Dew Point 10 °F    
Average Humidity 46    
Maximum Humidity 65    
Minimum Humidity 19    
Precipitation  
Precipitation 0.00 in - - ()
Sea Level Pressure  
Sea Level Pressure 30.24 in    
Wind  
Wind Speed 11 mph (NW)    
Max Wind Speed 16 mph    
Max Gust Speed 21 mph    
Visibility 10 miles    
Events      
Averages and records for this station are not official NWS values.
T = Trace of Precipitation, MM = Missing Value Source: NWS Daily Summary

Daily Weather History Graph

Daily Weather History Graph

Search for Another Location

Airport:

Trip Planner

Search our weather history database for the weather conditions in past years. The results will help you decide how hot, cold, wet, or windy it might be!

Date:

Astronomy

Feb. 15, 2013 Rise Set
Actual Time 6:58 AM CST 5:41 PM CST
Civil Twilight 6:30 AM CST 6:09 PM CST
Nautical Twilight 5:59 AM CST 6:41 PM CST
Astronomical Twilight 5:27 AM CST 7:12 PM CST
Moon 9:33 AM CST (2/15) 11:44 PM CST (2/15)
Length of Visible Light 11h 38m
Length of Day
10h 42m
Waxing Crescent, 30% of the Moon is Illuminated
Feb 15
Waxing Crescent
Feb 17
First Quarter
Feb 25
Full
Mar 4
Last Quarter
Mar 11
New

Hourly Weather History & Observations

Time (CST) Temp. Windchill Dew Point Humidity Pressure Visibility Wind Dir Wind Speed Gust Speed Precip Events Conditions
12:15 AM 35.6 °F 27.5 °F 23.0 °F 60% 30.10 in 10.0 mi NNW 11.5 mph 19.6 mph N/A   Overcast
12:35 AM 33.8 °F 24.8 °F 23.0 °F 65% 30.11 in 10.0 mi NNW 12.7 mph 17.3 mph N/A   Mostly Cloudy
12:55 AM 33.8 °F 24.8 °F 21.2 °F 60% 30.11 in 10.0 mi NNW 12.7 mph 17.3 mph N/A   Overcast
1:15 AM 33.8 °F 25.8 °F 21.2 °F 60% 30.12 in 10.0 mi NNW 10.4 mph - N/A   Overcast
1:35 AM 32.0 °F 22.1 °F 19.4 °F 60% 30.13 in 10.0 mi NNW 13.8 mph 18.4 mph N/A   Mostly Cloudy
1:55 AM 30.2 °F 19.8 °F 19.4 °F 64% 30.14 in 10.0 mi NW 13.8 mph 18.4 mph N/A   Scattered Clouds
2:15 AM 30.2 °F 19.3 °F 17.6 °F 60% 30.15 in 10.0 mi NNW 15.0 mph 18.4 mph N/A   Scattered Clouds
2:35 AM 30.2 °F 21.3 °F 17.6 °F 60% 30.16 in 10.0 mi NNW 10.4 mph - N/A   Scattered Clouds
2:55 AM 28.4 °F 19.1 °F 17.6 °F 64% 30.16 in 10.0 mi NNW 10.4 mph 19.6 mph N/A   Scattered Clouds
3:15 AM 28.4 °F 20.4 °F 17.6 °F 64% 30.17 in 10.0 mi NNW 8.1 mph - N/A   Mostly Cloudy
3:35 AM 28.4 °F 19.1 °F 15.8 °F 59% 30.17 in 10.0 mi NNW 10.4 mph - N/A   Overcast
3:55 AM 28.4 °F 18.5 °F 10.4 °F 47% 30.17 in 10.0 mi NNW 11.5 mph 18.4 mph N/A   Scattered Clouds
4:15 AM 26.6 °F 15.2 °F 10.4 °F 51% 30.18 in 10.0 mi NNW 13.8 mph - N/A   Clear
4:35 AM 26.6 °F 17.5 °F 12.2 °F 55% 30.19 in 10.0 mi NNW 9.2 mph 17.3 mph N/A   Clear
4:55 AM 26.6 °F 17.5 °F 12.2 °F 55% 30.20 in 10.0 mi NW 9.2 mph 17.3 mph N/A   Clear
5:15 AM 26.6 °F 15.7 °F 8.6 °F 47% 30.20 in 10.0 mi NNW 12.7 mph 18.4 mph N/A   Clear
5:35 AM 24.8 °F 16.1 °F 10.4 °F 54% 30.21 in 10.0 mi NNW 8.1 mph - N/A   Clear
5:55 AM 24.8 °F 14.6 °F 8.6 °F 50% 30.22 in 10.0 mi NNW 10.4 mph 18.4 mph N/A   Clear
6:15 AM 24.8 °F 14.6 °F 8.6 °F 50% 30.23 in 10.0 mi NNW 10.4 mph 17.3 mph N/A   Clear
6:35 AM 24.8 °F 16.9 °F 10.4 °F 54% 30.24 in 10.0 mi NW 6.9 mph - N/A   Clear
6:55 AM 24.8 °F 13.4 °F 10.4 °F 54% 30.24 in 10.0 mi NNW 12.7 mph 17.3 mph N/A   Clear
7:15 AM 24.8 °F 16.1 °F 8.6 °F 50% 30.25 in 10.0 mi NNW 8.1 mph - N/A   Clear
7:35 AM 24.8 °F 16.1 °F 10.4 °F 54% 30.26 in 10.0 mi NW 8.1 mph - N/A   Clear
7:55 AM 26.6 °F 16.8 °F 12.2 °F 55% 30.26 in 10.0 mi NW 10.4 mph - N/A   Clear
8:15 AM 26.6 °F 15.7 °F 14.0 °F 59% 30.27 in 10.0 mi NW 12.7 mph 18.4 mph N/A   Clear
8:35 AM 26.6 °F 16.2 °F 12.2 °F 55% 30.28 in 10.0 mi NNW 11.5 mph - N/A   Clear
8:55 AM 28.4 °F 19.1 °F 12.2 °F 51% 30.28 in 10.0 mi NNW 10.4 mph - N/A   Clear
9:15 AM 28.4 °F 19.7 °F 12.2 °F 51% 30.28 in 10.0 mi NW 9.2 mph - N/A   Clear
9:35 AM 30.2 °F 21.9 °F 10.4 °F 44% 30.28 in 10.0 mi NNW 9.2 mph - N/A   Clear
9:55 AM 30.2 °F 22.6 °F 10.4 °F 44% 30.28 in 10.0 mi NNW 8.1 mph - N/A   Clear
10:15 AM 30.2 °F 22.6 °F 8.6 °F 40% 30.28 in 10.0 mi NNW 8.1 mph - N/A   Clear
10:35 AM 33.8 °F 27.7 °F 8.6 °F 35% 30.28 in 10.0 mi WNW 6.9 mph - N/A   Clear
10:55 AM 33.8 °F 24.8 °F 6.8 °F 32% 30.28 in 10.0 mi WNW 12.7 mph 18.4 mph N/A   Clear
11:15 AM 33.8 °F 28.6 °F 6.8 °F 32% 30.28 in 10.0 mi WNW 5.8 mph - N/A   Clear
11:55 AM 35.6 °F 26.6 °F 5.0 °F 28% 30.27 in 10.0 mi WNW 13.8 mph - N/A   Clear
12:15 PM 35.6 °F 28.0 °F 5.0 °F 28% 30.26 in 10.0 mi WNW 10.4 mph - N/A   Clear
12:35 PM 37.4 °F 28.9 °F 3.2 °F 24% 30.26 in 10.0 mi WNW 13.8 mph - N/A   Clear
12:55 PM 37.4 °F 30.3 °F 1.4 °F 22% 30.25 in 10.0 mi NNW 10.4 mph - N/A   Clear
1:15 PM 37.4 °F 32.1 °F 1.4 °F 22% 30.24 in 10.0 mi WNW 6.9 mph 17.3 mph N/A   Clear
1:35 PM 37.4 °F 30.3 °F 3.2 °F 24% 30.24 in 10.0 mi West 10.4 mph 16.1 mph N/A   Clear
1:55 PM 37.4 °F 29.3 °F 3.2 °F 24% 30.23 in 10.0 mi West 12.7 mph 18.4 mph N/A   Clear
2:15 PM 37.4 °F 29.3 °F 1.4 °F 22% 30.23 in 10.0 mi WNW 12.7 mph 18.4 mph N/A   Scattered Clouds
2:35 PM 39.2 °F 30.5 °F 1.4 °F 21% 30.23 in 10.0 mi West 16.1 mph - N/A   Clear
2:55 PM 37.4 °F 28.2 °F -0.4 °F 20% 30.23 in 10.0 mi WNW 16.1 mph 19.6 mph N/A   Clear
3:15 PM 37.4 °F 28.2 °F 1.4 °F 22% 30.23 in 10.0 mi WNW 16.1 mph 20.7 mph N/A   Scattered Clouds
3:35 PM 37.4 °F 28.2 °F -2.2 °F 19% 30.23 in 10.0 mi WNW 16.1 mph 19.6 mph N/A   Clear
3:55 PM 37.4 °F 28.5 °F -2.2 °F 19% 30.24 in 10.0 mi WNW 15.0 mph - N/A   Clear
4:15 PM 35.6 °F 26.2 °F 5.0 °F 28% 30.25 in 10.0 mi North 15.0 mph 19.6 mph N/A   Clear
4:35 PM 33.8 °F 24.3 °F 5.0 °F 30% 30.25 in 10.0 mi NNW 13.8 mph 19.6 mph N/A   Clear
4:55 PM 32.0 °F 21.6 °F 8.6 °F 38% 30.25 in 10.0 mi NNW 15.0 mph 19.6 mph N/A   Clear
5:15 PM 30.2 °F 19.8 °F 10.4 °F 44% 30.26 in 10.0 mi NNW 13.8 mph 19.6 mph N/A   Clear
5:35 PM 30.2 °F 20.8 °F 10.4 °F 44% 30.26 in 10.0 mi NNW 11.5 mph - N/A   Clear
5:55 PM 30.2 °F 19.3 °F 10.4 °F 44% 30.26 in 10.0 mi NW 15.0 mph 19.6 mph N/A   Clear
6:15 PM 30.2 °F 21.3 °F 10.4 °F 44% 30.26 in 10.0 mi NNW 10.4 mph 18.4 mph N/A   Clear
6:35 PM 28.4 °F 18.0 °F 10.4 °F 47% 30.27 in 10.0 mi NNW 12.7 mph 17.3 mph N/A   Scattered Clouds
6:55 PM 28.4 °F 19.1 °F 10.4 °F 47% 30.27 in 10.0 mi NNW 10.4 mph - N/A   Scattered Clouds
7:15 PM 28.4 °F 19.7 °F 12.2 °F 51% 30.28 in 10.0 mi NW 9.2 mph - N/A   Clear
7:35 PM 28.4 °F 21.2 °F 10.4 °F 47% 30.28 in 10.0 mi NW 6.9 mph - N/A   Clear
7:55 PM 28.4 °F 20.4 °F 10.4 °F 47% 30.28 in 10.0 mi NW 8.1 mph - N/A   Scattered Clouds
8:15 PM 26.6 °F 20.0 °F 10.4 °F 51% 30.28 in 10.0 mi NW 5.8 mph - N/A   Clear
8:35 PM 26.6 °F 19.1 °F 10.4 °F 51% 30.28 in 10.0 mi NW 6.9 mph - N/A   Clear
8:55 PM 26.6 °F 18.2 °F 10.4 °F 51% 30.28 in 10.0 mi NW 8.1 mph - N/A   Clear
9:15 PM 26.6 °F 19.1 °F 10.4 °F 51% 30.28 in 10.0 mi NW 6.9 mph - N/A   Clear
9:35 PM 24.8 °F 17.9 °F 10.4 °F 54% 30.28 in 10.0 mi NW 5.8 mph - N/A   Clear
9:55 PM 24.8 °F 16.9 °F 10.4 °F 54% 30.28 in 10.0 mi NW 6.9 mph - N/A   Clear
10:15 PM 24.8 °F 17.9 °F 10.4 °F 54% 30.27 in 10.0 mi NW 5.8 mph - N/A   Clear
10:35 PM 24.8 °F 17.9 °F 10.4 °F 54% 30.27 in 10.0 mi NW 5.8 mph - N/A   Clear
10:55 PM 24.8 °F 19.1 °F 12.2 °F 59% 30.26 in 10.0 mi NW 4.6 mph - N/A   Clear
11:15 PM 23.0 °F 15.8 °F 12.2 °F 63% 30.26 in 10.0 mi NW 5.8 mph - N/A   Clear
11:35 PM 24.8 °F 17.9 °F 12.2 °F 59% 30.26 in 10.0 mi NW 5.8 mph - N/A   Clear
11:55 PM 24.8 °F 16.9 °F 12.2 °F 59% 30.26 in 10.0 mi NNW 6.9 mph - N/A   Clear